createdAt,value
2022-12-14T00:02:09.209Z,8.98
2022-12-14T00:04:38.762Z,9.23
2022-12-14T00:07:08.220Z,9.30
2022-12-14T00:09:37.681Z,8.32
2022-12-14T00:12:07.280Z,9.45
2022-12-14T00:14:40.026Z,9.32
2022-12-14T00:17:09.652Z,9.52
2022-12-14T00:19:39.271Z,8.85
2022-12-14T00:22:08.732Z,9.25
2022-12-14T00:24:38.291Z,9.25
2022-12-14T00:27:07.785Z,8.50
2022-12-14T00:29:39.824Z,9.15
2022-12-14T00:32:09.307Z,8.80
2022-12-14T00:34:39.017Z,8.65
2022-12-14T00:37:08.476Z,8.32
2022-12-14T00:39:38.000Z,8.52
2022-12-14T00:42:07.626Z,8.70
2022-12-14T00:44:39.674Z,8.73
2022-12-14T00:47:09.714Z,8.60
2022-12-14T00:49:39.170Z,8.27
2022-12-14T00:52:08.681Z,8.45
2022-12-14T00:54:38.188Z,8.77
2022-12-14T00:57:07.657Z,8.73
2022-12-14T00:59:39.741Z,8.07
2022-12-14T01:02:09.337Z,8.32
2022-12-14T01:04:39.077Z,8.43
2022-12-14T01:07:08.732Z,8.77
2022-12-14T01:09:38.478Z,8.25
2022-12-14T01:12:08.480Z,8.05
2022-12-14T01:14:40.590Z,8.45
2022-12-14T01:17:10.056Z,8.20
2022-12-14T01:19:39.538Z,8.20
2022-12-14T01:22:10.336Z,8.10
2022-12-14T01:24:39.886Z,8.75
2022-12-14T01:27:09.384Z,8.30
2022-12-14T01:29:41.532Z,7.97
2022-12-14T01:32:11.168Z,9.23
2022-12-14T01:34:40.645Z,8.32
2022-12-14T01:37:10.112Z,8.70
2022-12-14T01:39:39.588Z,8.68
2022-12-14T01:42:12.476Z,8.10
2022-12-14T01:45:00.718Z,8.57
2022-12-14T01:47:37.457Z,8.40
2022-12-14T01:50:11.328Z,7.28
2022-12-14T01:52:42.972Z,8.13
2022-12-14T01:55:15.524Z,8.10
2022-12-14T01:57:46.871Z,8.30
2022-12-14T02:00:19.542Z,8.25
2022-12-14T02:02:52.440Z,7.93
2022-12-14T02:05:22.447Z,8.13
2022-12-14T02:07:51.900Z,8.43
2022-12-14T02:10:21.924Z,8.43
2022-12-14T02:12:52.053Z,8.47
2022-12-14T02:15:24.198Z,7.87
2022-12-14T02:17:53.850Z,8.32
2022-12-14T02:20:23.329Z,7.95
2022-12-14T02:23:07.672Z,8.20
2022-12-14T02:25:49.189Z,8.82
2022-12-14T02:28:33.711Z,8.45
2022-12-14T02:31:08.563Z,8.05
2022-12-14T02:33:42.157Z,8.93
2022-12-14T02:36:14.406Z,7.93
2022-12-14T02:38:49.333Z,8.13
2022-12-14T02:41:20.707Z,8.23
2022-12-14T02:43:54.265Z,8.60
2022-12-14T02:46:28.363Z,8.35
2022-12-14T02:49:01.445Z,8.20
2022-12-14T02:51:34.257Z,7.95
2022-12-14T02:54:04.358Z,8.20
2022-12-14T02:56:36.489Z,8.37
2022-12-14T02:59:06.113Z,7.63
2022-12-14T03:01:38.382Z,8.20
2022-12-14T03:04:08.842Z,7.97
2022-12-14T03:06:38.417Z,7.82
2022-12-14T03:09:11.169Z,8.30
2022-12-14T03:11:42.856Z,8.48
2022-12-14T03:14:14.936Z,7.68
2022-12-14T03:16:47.673Z,7.95
2022-12-14T03:19:20.141Z,7.60
2022-12-14T03:21:51.691Z,7.28
2022-12-14T03:24:23.361Z,8.10
2022-12-14T03:26:54.555Z,8.25
2022-12-14T03:29:25.399Z,8.30
2022-12-14T03:31:58.815Z,7.97
2022-12-14T03:34:30.469Z,7.90
2022-12-14T03:37:02.552Z,8.00
2022-12-14T03:39:34.868Z,7.75
2022-12-14T03:42:07.540Z,8.05
2022-12-14T03:44:48.952Z,8.02
2022-12-14T03:47:28.631Z,8.25
2022-12-14T03:50:01.763Z,8.25
2022-12-14T03:52:34.123Z,7.65
2022-12-14T03:55:11.131Z,7.53
2022-12-14T03:57:49.816Z,7.57
2022-12-14T04:00:20.183Z,7.75
2022-12-14T04:02:53.630Z,7.65
2022-12-14T04:05:25.301Z,7.75
2022-12-14T04:07:57.921Z,7.90
2022-12-14T04:10:40.567Z,7.85
2022-12-14T04:13:24.325Z,7.95
2022-12-14T04:16:06.495Z,8.10
2022-12-14T04:18:59.077Z,8.90
2022-12-14T04:21:35.319Z,7.55
2022-12-14T04:24:18.867Z,8.27
2022-12-14T04:26:52.384Z,7.88
2022-12-14T04:29:35.074Z,8.10
2022-12-14T04:32:07.550Z,7.40
2022-12-14T04:34:39.684Z,7.68
2022-12-14T04:37:10.876Z,8.20
2022-12-14T04:39:42.688Z,7.72
2022-12-14T04:42:12.129Z,8.20
2022-12-14T04:44:43.252Z,8.15
2022-12-14T04:47:14.149Z,7.70
2022-12-14T04:49:49.003Z,8.20
2022-12-14T04:52:20.403Z,7.90
2022-12-14T04:54:51.929Z,8.32
2022-12-14T04:57:24.071Z,8.43
2022-12-14T04:59:53.668Z,8.25
2022-12-14T05:02:25.509Z,8.35
2022-12-14T05:05:00.104Z,8.30
2022-12-14T05:07:37.396Z,8.32
2022-12-14T05:10:08.721Z,8.05
2022-12-14T05:12:40.415Z,8.85
2022-12-14T05:15:11.743Z,8.35
2022-12-14T05:17:41.744Z,8.00
2022-12-14T05:20:19.735Z,8.15
2022-12-14T05:22:49.703Z,8.30
2022-12-14T05:25:19.640Z,8.40
2022-12-14T05:27:49.125Z,8.02
2022-12-14T05:30:18.828Z,8.40
2022-12-14T05:32:48.330Z,8.20
2022-12-14T05:35:20.621Z,9.10
2022-12-14T05:37:50.093Z,8.13
2022-12-14T05:40:19.876Z,8.10
2022-12-14T05:42:55.232Z,7.90
2022-12-14T05:45:25.231Z,8.30
2022-12-14T05:47:54.694Z,8.35
2022-12-14T05:50:26.765Z,8.35
2022-12-14T05:52:56.272Z,8.23
2022-12-14T05:55:25.782Z,7.95
2022-12-14T05:57:55.234Z,8.38
2022-12-14T06:00:25.037Z,8.32
2022-12-14T06:02:55.483Z,8.32
2022-12-14T06:05:27.629Z,8.48
2022-12-14T06:07:57.084Z,8.13
2022-12-14T06:10:26.538Z,8.52
2022-12-14T06:12:56.545Z,8.65
2022-12-14T06:15:33.645Z,9.57
2022-12-14T06:18:03.446Z,9.18
2022-12-14T06:20:35.751Z,9.27
2022-12-14T06:23:05.198Z,9.63
2022-12-14T06:25:34.659Z,10.02
2022-12-14T06:28:04.156Z,10.07
2022-12-14T06:30:33.634Z,10.02
2022-12-14T06:33:03.112Z,10.10
2022-12-14T06:35:35.140Z,10.23
2022-12-14T06:38:04.586Z,11.13
2022-12-14T06:40:34.040Z,10.63
2022-12-14T06:43:03.498Z,10.45
2022-12-14T06:45:32.997Z,10.70
2022-12-14T06:48:02.439Z,10.30
2022-12-14T06:50:31.988Z,10.63
2022-12-14T06:53:04.283Z,11.10
2022-12-14T06:55:33.754Z,10.80
2022-12-14T06:58:03.211Z,11.38
2022-12-14T07:00:32.783Z,11.27
2022-12-14T07:03:02.424Z,10.68
2022-12-14T07:05:31.974Z,11.27
2022-12-14T07:08:04.060Z,12.02
2022-12-14T07:10:33.555Z,12.32
2022-12-14T07:13:03.007Z,12.80
2022-12-14T07:15:32.491Z,13.43
2022-12-14T07:18:02.224Z,13.35
2022-12-14T07:20:31.656Z,13.80
2022-12-14T07:23:03.740Z,13.38
2022-12-14T07:25:33.187Z,13.77
2022-12-14T07:28:02.686Z,13.82
2022-12-14T07:30:32.117Z,13.35
2022-12-14T07:33:01.671Z,13.32
2022-12-14T07:35:31.390Z,14.48
2022-12-14T07:38:00.881Z,13.77
2022-12-14T07:40:32.924Z,13.10
2022-12-14T07:43:02.377Z,13.70
2022-12-14T07:45:31.920Z,14.23
2022-12-14T07:48:01.413Z,13.93
2022-12-14T07:50:30.896Z,14.48
2022-12-14T07:53:01.372Z,14.43
2022-12-14T07:55:33.438Z,14.82
2022-12-14T07:58:02.920Z,14.90
2022-12-14T08:00:32.372Z,15.23
2022-12-14T08:03:01.842Z,15.95
2022-12-14T08:05:31.482Z,15.32
2022-12-14T08:08:00.968Z,15.63
2022-12-14T08:10:37.157Z,14.05
2022-12-14T08:13:09.721Z,14.93
2022-12-14T08:15:40.224Z,14.23
2022-12-14T08:18:09.689Z,14.48
2022-12-14T08:20:39.132Z,14.82
2022-12-14T08:23:08.583Z,15.00
2022-12-14T08:25:40.621Z,14.75
2022-12-14T08:28:10.114Z,14.77
2022-12-14T08:30:41.496Z,15.38
2022-12-14T08:33:10.989Z,14.50
2022-12-14T08:35:40.443Z,15.38
2022-12-14T08:38:10.268Z,14.93
2022-12-14T08:40:42.420Z,14.82
2022-12-14T08:43:11.884Z,14.23
2022-12-14T08:45:41.423Z,14.48
2022-12-14T08:48:11.632Z,14.32
2022-12-14T08:50:41.133Z,14.60
2022-12-14T08:53:10.607Z,13.68
2022-12-14T08:55:42.714Z,13.95
2022-12-14T08:58:12.232Z,13.48
2022-12-14T09:00:41.714Z,14.13
2022-12-14T09:03:11.938Z,8.43
2022-12-14T09:05:41.437Z,15.88
2022-12-14T09:08:10.898Z,13.63
2022-12-14T09:10:42.954Z,13.98
2022-12-14T09:13:13.430Z,14.10
2022-12-14T09:15:42.986Z,14.32
2022-12-14T09:18:12.535Z,14.77
2022-12-14T09:20:41.976Z,14.00
2022-12-14T09:23:11.458Z,13.73
2022-12-14T09:25:43.516Z,13.98
2022-12-14T09:28:12.991Z,13.85
2022-12-14T09:30:42.424Z,13.93
2022-12-14T09:33:11.923Z,13.32
2022-12-14T09:35:41.368Z,14.32
2022-12-14T09:38:10.819Z,14.32
2022-12-14T09:40:42.840Z,14.43
2022-12-14T09:43:19.823Z,14.65
2022-12-14T09:45:51.361Z,14.25
2022-12-14T09:48:21.468Z,13.93
2022-12-14T09:50:51.065Z,14.90
2022-12-14T09:53:21.055Z,15.13
2022-12-14T09:55:54.599Z,15.27
2022-12-14T09:58:25.121Z,14.52
2022-12-14T10:00:56.749Z,14.68
2022-12-14T10:03:46.570Z,14.82
2022-12-14T10:06:34.185Z,14.65
2022-12-14T10:09:13.141Z,14.25
2022-12-14T10:11:47.914Z,14.13
2022-12-14T10:14:20.965Z,14.63
2022-12-14T10:16:53.363Z,13.88
2022-12-14T10:19:29.332Z,13.88
2022-12-14T10:22:01.469Z,13.73
2022-12-14T10:24:34.012Z,13.82
2022-12-14T10:27:06.250Z,12.98
2022-12-14T10:29:37.948Z,12.98
2022-12-14T10:32:14.197Z,13.05
2022-12-14T10:34:43.922Z,13.20
2022-12-14T10:37:25.650Z,13.00
2022-12-14T10:40:31.142Z,12.45
2022-12-14T10:43:30.089Z,12.75
2022-12-14T10:46:08.543Z,12.80
2022-12-14T10:48:45.221Z,12.75
2022-12-14T10:51:17.095Z,13.35
2022-12-14T10:53:48.931Z,12.60
2022-12-14T10:56:21.021Z,12.43
2022-12-14T10:59:20.706Z,12.60
2022-12-14T11:01:51.624Z,12.80
2022-12-14T11:06:51.455Z,12.10
2022-12-14T11:09:22.692Z,12.02
2022-12-14T11:11:52.168Z,12.40
2022-12-14T11:14:25.313Z,12.50
2022-12-14T11:16:54.879Z,12.30
2022-12-14T11:19:25.220Z,12.68
2022-12-14T11:22:06.868Z,13.45
2022-12-14T11:24:37.167Z,12.18
2022-12-14T11:27:06.677Z,12.05
2022-12-14T11:29:40.510Z,12.48
2022-12-14T11:32:10.116Z,12.75
2022-12-14T11:34:40.995Z,12.90
2022-12-14T11:37:14.328Z,12.70
2022-12-14T11:39:44.373Z,13.30
2022-12-14T11:42:19.004Z,13.37
2022-12-14T11:44:51.675Z,12.38
2022-12-14T11:47:21.607Z,12.15
2022-12-14T11:49:52.166Z,12.52
2022-12-14T11:52:22.482Z,12.90
2022-12-14T11:55:06.819Z,12.82
2022-12-14T11:57:38.744Z,12.70
2022-12-14T12:00:24.415Z,12.18
2022-12-14T12:02:59.789Z,12.68
2022-12-14T12:05:29.556Z,12.10
2022-12-14T12:07:59.896Z,12.35
2022-12-14T12:10:30.847Z,12.27
2022-12-14T12:13:01.113Z,13.15
2022-12-14T12:15:36.699Z,12.70
2022-12-14T12:18:07.856Z,12.93
2022-12-14T12:20:38.393Z,13.30
2022-12-14T12:23:09.580Z,12.43
2022-12-14T12:25:39.114Z,11.85
2022-12-14T12:28:13.013Z,12.55
2022-12-14T12:30:46.022Z,12.55
2022-12-14T12:33:23.607Z,12.98
2022-12-14T12:35:54.541Z,12.93
2022-12-14T12:38:29.303Z,11.68
2022-12-14T12:41:03.006Z,12.25
2022-12-14T12:43:42.128Z,12.85
2022-12-14T12:46:17.558Z,12.55
2022-12-14T12:48:49.336Z,12.85
2022-12-14T12:51:19.824Z,13.38
2022-12-14T12:53:50.362Z,12.80
2022-12-14T12:56:21.891Z,12.57
2022-12-14T12:58:53.150Z,12.75
2022-12-14T13:01:29.096Z,13.15
2022-12-14T13:04:00.431Z,11.95
2022-12-14T13:06:32.553Z,12.15
2022-12-14T13:09:02.793Z,11.65
2022-12-14T13:11:34.127Z,12.15
2022-12-14T13:14:06.159Z,11.18
2022-12-14T13:16:39.842Z,11.40
2022-12-14T13:19:48.342Z,12.35
2022-12-14T13:22:06.363Z,12.25
2022-12-14T13:24:37.495Z,11.98
2022-12-14T13:27:22.571Z,11.88
2022-12-14T13:29:58.533Z,11.63
2022-12-14T13:32:45.486Z,11.57
2022-12-14T13:35:37.100Z,11.57
2022-12-14T13:38:17.308Z,11.52
2022-12-14T13:41:04.961Z,12.13
2022-12-14T13:43:41.512Z,12.65
2022-12-14T13:46:16.568Z,12.43
2022-12-14T13:48:48.651Z,12.30
2022-12-14T13:51:22.815Z,12.75
2022-12-14T13:53:55.033Z,13.27
2022-12-14T13:56:32.612Z,12.75
2022-12-14T13:59:03.042Z,13.10
2022-12-14T14:02:02.336Z,12.82
2022-12-14T14:04:35.693Z,13.00
2022-12-14T14:07:41.239Z,13.15
2022-12-14T14:10:32.114Z,12.60
2022-12-14T14:13:02.060Z,13.48
2022-12-14T14:15:34.165Z,12.88
2022-12-14T14:18:24.981Z,12.85
2022-12-14T14:21:17.224Z,13.15
2022-12-14T14:23:56.035Z,12.98
2022-12-14T14:26:29.902Z,13.93
2022-12-14T14:29:26.627Z,13.13
2022-12-14T14:31:58.151Z,13.90
2022-12-14T14:34:50.547Z,13.35
2022-12-14T14:37:31.780Z,13.27
2022-12-14T14:40:23.956Z,13.98
2022-12-14T14:43:05.370Z,11.90
2022-12-14T14:45:43.181Z,14.50
2022-12-14T14:48:28.231Z,13.10
2022-12-14T14:51:06.416Z,14.00
2022-12-14T14:53:38.782Z,13.90
2022-12-14T14:56:34.776Z,13.75
2022-12-14T14:59:40.264Z,13.18
2022-12-14T15:02:28.187Z,13.35
2022-12-14T15:05:17.529Z,13.27
2022-12-14T15:07:47.672Z,13.70
2022-12-14T15:10:22.987Z,13.93
2022-12-14T15:12:54.055Z,14.20
2022-12-14T15:15:25.511Z,14.52
2022-12-14T15:17:54.995Z,15.13
2022-12-14T15:20:26.003Z,15.38
2022-12-14T15:25:29.038Z,14.25
2022-12-14T15:27:59.283Z,13.85
2022-12-14T15:30:29.567Z,15.10
2022-12-14T15:33:00.935Z,14.60
2022-12-14T15:35:31.270Z,14.52
2022-12-14T15:38:03.096Z,14.85
2022-12-14T15:40:35.360Z,14.32
2022-12-14T15:43:05.733Z,14.35
2022-12-14T15:45:37.762Z,14.80
2022-12-14T15:48:16.798Z,15.02
2022-12-14T15:50:46.823Z,14.40
2022-12-14T15:53:17.313Z,13.77
2022-12-14T15:56:00.185Z,14.02
2022-12-14T15:58:32.725Z,14.60
2022-12-14T16:01:04.501Z,14.35
2022-12-14T16:03:37.869Z,14.63
2022-12-14T16:06:07.637Z,13.70
2022-12-14T16:08:37.420Z,15.13
2022-12-14T16:11:12.937Z,15.75
2022-12-14T16:13:43.402Z,14.88
2022-12-14T16:16:14.086Z,15.35
2022-12-14T16:18:44.224Z,15.75
2022-12-14T16:21:28.822Z,15.30
2022-12-14T16:23:59.143Z,15.50
2022-12-14T16:26:35.815Z,15.43
2022-12-14T16:29:19.472Z,15.25
2022-12-14T16:31:49.247Z,15.85
2022-12-14T16:34:20.564Z,17.33
2022-12-14T16:37:22.773Z,16.23
2022-12-14T16:39:40.488Z,16.00
2022-12-14T16:42:20.807Z,17.73
2022-12-14T16:44:53.831Z,16.60
2022-12-14T16:48:02.449Z,16.48
2022-12-14T16:50:55.449Z,18.60
2022-12-14T16:53:25.198Z,18.60
2022-12-14T16:56:04.716Z,19.30
2022-12-14T16:58:36.772Z,17.67
2022-12-14T17:01:07.470Z,20.13
2022-12-14T17:03:37.930Z,20.38
2022-12-14T17:06:08.713Z,20.63
2022-12-14T17:08:38.714Z,23.05
2022-12-14T17:11:08.517Z,19.90
2022-12-14T17:13:40.591Z,21.50
2022-12-14T17:16:10.993Z,20.63
2022-12-14T17:18:41.273Z,19.08
2022-12-14T17:21:11.513Z,20.98
2022-12-14T17:23:41.556Z,21.20
2022-12-14T17:26:12.864Z,21.25
2022-12-14T17:28:45.030Z,21.08
2022-12-14T17:31:17.684Z,22.15
2022-12-14T17:33:47.174Z,18.37
2022-12-14T17:36:16.617Z,18.10
2022-12-14T17:38:46.100Z,15.90
2022-12-14T17:41:18.019Z,15.55
2022-12-14T17:43:55.238Z,18.00
2022-12-14T17:46:26.608Z,18.80
2022-12-14T17:48:57.001Z,24.40
2022-12-14T17:51:29.226Z,18.40
2022-12-14T17:53:59.246Z,15.57
2022-12-14T17:56:28.663Z,15.85
2022-12-14T17:59:00.739Z,16.10
2022-12-14T18:01:30.285Z,21.33
2022-12-14T18:03:59.879Z,19.58
2022-12-14T18:06:29.406Z,18.40
2022-12-14T18:08:58.915Z,18.40
2022-12-14T18:11:29.597Z,18.00
2022-12-14T18:14:01.674Z,17.65
2022-12-14T18:16:31.307Z,17.17
2022-12-14T18:19:00.890Z,19.35
2022-12-14T18:21:31.140Z,20.27
2022-12-14T18:24:00.768Z,21.83
2022-12-14T18:26:30.208Z,24.08
2022-12-14T18:29:02.352Z,23.63
2022-12-14T18:31:34.440Z,22.88
2022-12-14T18:34:03.960Z,24.55
2022-12-14T18:36:33.440Z,21.80
2022-12-14T18:39:02.949Z,23.38
2022-12-14T18:41:32.397Z,23.80
2022-12-14T18:44:04.523Z,23.70
2022-12-14T18:46:33.986Z,22.42
2022-12-14T18:49:03.478Z,22.67
2022-12-14T18:51:32.980Z,21.50
2022-12-14T18:54:03.369Z,20.40
2022-12-14T18:56:33.105Z,21.70
2022-12-14T18:59:05.170Z,19.70
2022-12-14T19:01:34.753Z,20.38
2022-12-14T19:04:04.441Z,19.55
2022-12-14T19:06:44.277Z,17.58
2022-12-14T19:09:14.953Z,17.70
2022-12-14T19:11:44.408Z,18.58
2022-12-14T19:14:16.464Z,18.55
2022-12-14T19:16:45.962Z,17.80
2022-12-14T19:19:15.415Z,18.25
2022-12-14T19:21:44.875Z,18.40
2022-12-14T19:24:16.757Z,18.63
2022-12-14T19:26:49.545Z,18.90
2022-12-14T19:29:21.781Z,18.08
2022-12-14T19:31:54.241Z,17.98
2022-12-14T19:34:24.227Z,18.25
2022-12-14T19:36:53.659Z,17.73
2022-12-14T19:39:23.150Z,17.95
2022-12-14T19:41:54.195Z,18.35
2022-12-14T19:46:55.545Z,17.50
2022-12-14T19:49:25.042Z,17.92
2022-12-14T19:51:54.539Z,18.35
2022-12-14T19:54:24.017Z,17.88
2022-12-14T19:56:54.574Z,18.05
2022-12-14T19:59:26.615Z,18.88
2022-12-14T20:01:56.281Z,19.27
2022-12-14T20:04:25.926Z,18.80
2022-12-14T20:06:55.430Z,20.17
2022-12-14T20:09:24.876Z,21.98
2022-12-14T20:11:54.361Z,20.42
2022-12-14T20:14:26.533Z,18.75
2022-12-14T20:16:56.088Z,19.48
2022-12-14T20:19:25.616Z,17.90
2022-12-14T20:21:55.123Z,17.42
2022-12-14T20:24:24.591Z,16.98
2022-12-14T20:26:54.060Z,15.70
2022-12-14T20:29:27.270Z,15.93
2022-12-14T20:31:57.845Z,15.75
2022-12-14T20:34:29.049Z,15.52
2022-12-14T20:36:58.513Z,16.10
2022-12-14T20:39:27.950Z,15.90
2022-12-14T20:41:57.458Z,15.60
2022-12-14T20:44:29.477Z,14.75
2022-12-14T20:46:58.956Z,15.00
2022-12-14T20:49:30.142Z,15.30
2022-12-14T20:51:59.936Z,14.90
2022-12-14T20:54:29.403Z,15.43
2022-12-14T20:56:59.027Z,16.10
2022-12-14T20:59:31.136Z,16.38
2022-12-14T21:02:00.769Z,16.80
2022-12-14T21:04:30.459Z,15.60
2022-12-14T21:06:59.961Z,15.55
2022-12-14T21:09:29.417Z,15.43
2022-12-14T21:12:11.355Z,15.63
2022-12-14T21:14:48.163Z,14.48
2022-12-14T21:17:17.789Z,14.63
2022-12-14T21:19:47.262Z,14.95
2022-12-14T21:22:17.469Z,16.70
2022-12-14T21:25:04.832Z,17.15
2022-12-14T21:27:35.754Z,20.55
2022-12-14T21:30:08.997Z,18.98
2022-12-14T21:32:38.597Z,29.63
2022-12-14T21:35:08.969Z,28.17
2022-12-14T21:37:40.062Z,20.60
2022-12-14T21:42:57.099Z,20.05
2022-12-14T21:45:31.987Z,19.98
2022-12-14T21:48:01.486Z,18.75
2022-12-14T21:50:30.961Z,21.20
2022-12-14T21:53:00.408Z,21.13
2022-12-14T21:55:29.970Z,18.98
2022-12-14T21:58:11.947Z,17.45
2022-12-14T22:00:44.038Z,14.27
2022-12-14T22:03:13.774Z,13.60
2022-12-14T22:05:43.282Z,14.18
2022-12-14T22:08:12.855Z,14.60
2022-12-14T22:10:42.375Z,14.95
2022-12-14T22:13:11.857Z,14.98
2022-12-14T22:15:43.905Z,17.10
2022-12-14T22:18:13.381Z,15.75
2022-12-14T22:20:43.016Z,16.63
2022-12-14T22:23:12.472Z,16.48
2022-12-14T22:25:41.932Z,15.60
2022-12-14T22:28:11.388Z,16.05
2022-12-14T22:30:41.023Z,17.33
2022-12-14T22:33:13.086Z,17.33
2022-12-14T22:35:42.548Z,16.00
2022-12-14T22:38:12.065Z,16.75
2022-12-14T22:40:41.542Z,17.23
2022-12-14T22:43:11.113Z,15.75
2022-12-14T22:45:40.609Z,15.63
2022-12-14T22:48:12.696Z,15.20
2022-12-14T22:50:42.170Z,15.93
2022-12-14T22:53:12.986Z,15.73
2022-12-14T22:55:42.458Z,15.73
2022-12-14T22:58:12.158Z,15.88
2022-12-14T23:00:41.660Z,16.52
2022-12-14T23:03:14.284Z,17.55
2022-12-14T23:05:43.829Z,18.52
2022-12-14T23:08:13.287Z,19.05
2022-12-14T23:10:55.243Z,18.90
2022-12-14T23:13:37.179Z,20.02
2022-12-14T23:16:19.794Z,18.27
2022-12-14T23:19:04.343Z,19.42
2022-12-14T23:21:46.285Z,18.60
2022-12-14T23:24:28.249Z,17.10
2022-12-14T23:27:10.241Z,18.92
2022-12-14T23:29:52.237Z,18.23
2022-12-14T23:32:34.236Z,17.73
2022-12-14T23:35:19.185Z,17.63
2022-12-14T23:38:01.127Z,17.63
2022-12-14T23:40:43.076Z,17.90
2022-12-14T23:43:25.081Z,17.48
2022-12-14T23:46:07.077Z,16.67
2022-12-14T23:48:49.044Z,14.60
2022-12-14T23:51:33.566Z,12.93
2022-12-14T23:54:15.496Z,12.68
2022-12-14T23:56:57.424Z,12.23
2022-12-14T23:59:39.356Z,12.75
